createdAt,value
2018-10-21T00:01:33.090Z,99.90
2018-10-21T00:04:02.094Z,99.90
2018-10-21T00:06:31.213Z,99.90
2018-10-21T00:09:00.395Z,99.90
2018-10-21T00:11:29.451Z,99.90
2018-10-21T00:13:58.988Z,99.90
2018-10-21T00:16:28.007Z,99.90
2018-10-21T00:18:57.418Z,99.90
2018-10-21T00:21:26.536Z,99.90
2018-10-21T00:23:55.675Z,99.90
2018-10-21T00:26:24.891Z,99.90
2018-10-21T00:28:54.044Z,99.90
2018-10-21T00:31:23.783Z,99.90
2018-10-21T00:33:52.855Z,99.90
2018-10-21T00:36:22.188Z,99.90
2018-10-21T00:38:51.213Z,99.90
2018-10-21T00:41:20.197Z,99.90
2018-10-21T00:43:49.935Z,99.90
2018-10-21T00:46:19.091Z,99.90
2018-10-21T00:48:48.260Z,99.90
2018-10-21T00:51:17.490Z,99.90
2018-10-21T00:53:47.335Z,99.90
2018-10-21T00:56:16.389Z,99.90
2018-10-21T00:58:45.355Z,99.90
2018-10-21T01:01:14.674Z,99.90
2018-10-21T01:03:43.656Z,99.90
2018-10-21T01:06:13.354Z,99.90
2018-10-21T01:08:42.398Z,99.90
2018-10-21T01:11:12.347Z,99.90
2018-10-21T01:13:41.494Z,99.90
2018-10-21T01:16:11.211Z,99.90
2018-10-21T01:18:40.274Z,99.90
2018-10-21T01:21:09.282Z,99.90
2018-10-21T01:23:38.457Z,99.90
2018-10-21T01:26:07.512Z,99.90
2018-10-21T01:28:36.526Z,99.90
2018-10-21T01:31:06.279Z,99.90
2018-10-21T01:33:35.335Z,99.90
2018-10-21T01:36:04.376Z,99.90
2018-10-21T01:38:33.465Z,99.90
2018-10-21T01:41:02.483Z,99.90
2018-10-21T01:43:32.661Z,99.90
2018-10-21T01:46:02.533Z,99.90
2018-10-21T01:48:32.575Z,99.90
2018-10-21T01:51:01.690Z,99.90
2018-10-21T01:53:30.732Z,99.90
2018-10-21T01:55:59.751Z,99.90
2018-10-21T01:58:29.032Z,99.90
2018-10-21T02:00:58.811Z,99.90
2018-10-21T02:03:28.591Z,99.90
2018-10-21T02:05:57.577Z,99.90
2018-10-21T02:08:26.609Z,99.90
2018-10-21T02:10:55.667Z,99.90
2018-10-21T02:13:24.661Z,99.90
2018-10-21T02:15:53.801Z,99.90
2018-10-21T02:18:22.787Z,99.90
2018-10-21T02:20:53.712Z,99.90
2018-10-21T02:23:22.951Z,99.90
2018-10-21T02:25:52.491Z,99.90
2018-10-21T02:28:21.556Z,99.90
2018-10-21T02:30:50.579Z,99.90
2018-10-21T02:33:19.802Z,99.90
2018-10-21T02:35:48.647Z,99.90
2018-10-21T02:38:18.131Z,99.90
2018-10-21T02:41:25.717Z,99.90
2018-10-21T02:43:56.077Z,99.90
2018-10-21T02:46:25.229Z,99.90
2018-10-21T02:48:55.150Z,99.90
2018-10-21T02:51:24.168Z,99.90
2018-10-21T02:53:55.354Z,99.90
2018-10-21T02:56:24.341Z,99.90
2018-10-21T02:58:53.399Z,99.90
2018-10-21T03:01:23.141Z,99.90
2018-10-21T03:03:52.118Z,99.90
2018-10-21T03:06:21.627Z,99.90
2018-10-21T03:08:50.612Z,99.90
2018-10-21T03:11:20.303Z,99.90
2018-10-21T03:13:49.296Z,99.90
2018-10-21T03:16:18.285Z,99.90
2018-10-21T03:18:47.392Z,99.90
2018-10-21T03:21:16.560Z,99.90
2018-10-21T03:23:46.272Z,99.90
2018-10-21T03:26:15.258Z,99.90
2018-10-21T03:28:44.421Z,99.90
2018-10-21T03:31:13.514Z,99.90
2018-10-21T03:33:42.632Z,99.90
2018-10-21T03:36:11.592Z,99.90
2018-10-21T03:38:40.823Z,99.90
2018-10-21T03:41:11.839Z,99.90
2018-10-21T03:43:40.957Z,99.90
2018-10-21T03:46:13.756Z,99.90
2018-10-21T03:48:43.069Z,99.90
2018-10-21T03:51:12.584Z,99.90
2018-10-21T03:53:41.948Z,99.90
2018-10-21T03:56:11.405Z,99.90
2018-10-21T03:58:40.443Z,99.90
2018-10-21T04:01:09.653Z,99.90
2018-10-21T04:03:39.625Z,99.90
2018-10-21T04:06:08.627Z,99.90
2018-10-21T04:08:37.774Z,99.90
2018-10-21T04:11:06.847Z,99.90
2018-10-21T04:13:35.992Z,99.90
2018-10-21T04:16:06.486Z,99.90
2018-10-21T04:18:35.574Z,99.90
2018-10-21T04:21:04.744Z,99.90
2018-10-21T04:23:33.787Z,99.90
2018-10-21T04:26:03.169Z,99.90
2018-10-21T04:28:32.185Z,99.90
2018-10-21T04:31:01.320Z,99.90
2018-10-21T04:33:46.126Z,99.90
2018-10-21T04:36:19.493Z,99.90
2018-10-21T04:40:01.055Z,99.90
2018-10-21T04:42:30.354Z,99.90
2018-10-21T04:45:00.681Z,99.90
2018-10-21T04:47:30.195Z,99.90
2018-10-21T04:49:59.266Z,99.90
2018-10-21T04:52:29.393Z,99.90
2018-10-21T04:55:03.748Z,99.90
2018-10-21T04:57:33.691Z,99.90
2018-10-21T05:00:02.804Z,99.90
2018-10-21T05:02:32.293Z,99.90
2018-10-21T05:05:01.498Z,99.90
2018-10-21T05:07:30.589Z,99.90
2018-10-21T05:09:59.521Z,99.90
2018-10-21T05:12:28.615Z,99.90
2018-10-21T05:14:59.003Z,99.90
2018-10-21T05:17:28.030Z,99.90
2018-10-21T05:19:57.107Z,99.90
2018-10-21T05:22:26.095Z,99.90
2018-10-21T05:24:55.203Z,99.90
2018-10-21T05:27:24.678Z,99.90
2018-10-21T05:29:53.740Z,99.90
2018-10-21T05:32:22.751Z,99.90
2018-10-21T05:34:51.771Z,99.90
2018-10-21T05:37:20.977Z,99.90
2018-10-21T05:39:50.160Z,99.90
2018-10-21T05:42:19.197Z,99.90
2018-10-21T05:44:49.347Z,99.90
2018-10-21T05:47:18.559Z,99.90
2018-10-21T05:49:47.536Z,99.90
2018-10-21T05:52:16.610Z,99.90
2018-10-21T05:54:45.729Z,99.90
2018-10-21T05:57:15.339Z,99.90
2018-10-21T05:59:44.417Z,99.90
2018-10-21T06:02:13.468Z,99.90
2018-10-21T06:04:42.562Z,99.90
2018-10-21T06:07:19.012Z,99.90
2018-10-21T06:09:48.105Z,99.90
2018-10-21T06:12:18.582Z,99.90
2018-10-21T06:14:49.133Z,99.90
2018-10-21T06:17:32.334Z,99.90
2018-10-21T06:20:06.996Z,99.90
2018-10-21T06:22:40.601Z,99.90
2018-10-21T06:25:10.316Z,99.90
2018-10-21T06:27:40.735Z,99.90
2018-10-21T06:30:10.932Z,99.90
2018-10-21T06:32:40.292Z,99.90
2018-10-21T06:35:10.030Z,99.90
2018-10-21T06:37:39.390Z,99.90
2018-10-21T06:40:10.114Z,99.90
2018-10-21T06:42:39.168Z,99.90
2018-10-21T06:45:09.634Z,99.90
2018-10-21T06:47:39.725Z,99.90
2018-10-21T06:50:13.121Z,99.90
2018-10-21T06:52:42.899Z,99.90
2018-10-21T06:55:12.342Z,99.90
2018-10-21T06:57:41.554Z,99.90
2018-10-21T07:00:10.710Z,99.90
2018-10-21T07:02:39.865Z,99.90
2018-10-21T07:05:21.126Z,99.90
2018-10-21T07:07:52.794Z,99.90
2018-10-21T07:10:21.963Z,99.90
2018-10-21T07:12:51.364Z,99.90
2018-10-21T07:15:20.775Z,99.90
2018-10-21T07:17:49.682Z,99.40
2018-10-21T07:20:18.670Z,94.50
2018-10-21T07:22:47.752Z,92.70
2018-10-21T07:25:17.615Z,89.00
2018-10-21T07:27:46.717Z,81.40
2018-10-21T07:30:15.744Z,76.00
2018-10-21T07:32:44.828Z,71.30
2018-10-21T07:35:14.629Z,67.50
2018-10-21T07:37:44.052Z,67.30
2018-10-21T07:40:13.937Z,62.10
2018-10-21T07:42:43.267Z,60.90
2018-10-21T07:45:12.572Z,60.10
2018-10-21T07:47:41.859Z,58.20
2018-10-21T07:50:11.158Z,59.10
2018-10-21T07:52:40.197Z,58.30
2018-10-21T07:55:13.729Z,56.00
2018-10-21T07:57:45.106Z,55.30
2018-10-21T08:00:14.112Z,54.30
2018-10-21T08:02:43.666Z,54.50
2018-10-21T08:05:25.062Z,54.00
2018-10-21T08:08:11.736Z,52.40
2018-10-21T08:10:41.109Z,51.10
2018-10-21T08:13:12.775Z,51.00
2018-10-21T08:15:42.674Z,50.90
2018-10-21T08:18:13.420Z,52.10
2018-10-21T08:20:43.753Z,50.10
2018-10-21T08:23:14.359Z,50.10
2018-10-21T08:25:44.592Z,50.00
2018-10-21T08:28:15.878Z,50.70
2018-10-21T08:30:45.181Z,50.80
2018-10-21T08:33:14.177Z,48.30
2018-10-21T08:35:43.338Z,49.20
2018-10-21T08:38:12.590Z,49.40
2018-10-21T08:40:41.702Z,49.10
2018-10-21T08:43:10.719Z,49.20
2018-10-21T08:45:40.468Z,47.60
2018-10-21T08:48:09.494Z,47.80
2018-10-21T08:50:39.250Z,47.50
2018-10-21T08:53:08.477Z,45.70
2018-10-21T08:55:37.516Z,45.20
2018-10-21T08:58:06.608Z,45.90
2018-10-21T09:00:35.787Z,44.50
2018-10-21T09:03:05.407Z,43.70
2018-10-21T09:05:34.451Z,42.30
2018-10-21T09:08:04.425Z,43.50
2018-10-21T09:10:33.488Z,42.40
2018-10-21T09:13:02.536Z,42.30
2018-10-21T09:15:31.719Z,42.60
2018-10-21T09:18:00.759Z,40.40
2018-10-21T09:20:30.461Z,40.80
2018-10-21T09:22:59.462Z,40.40
2018-10-21T09:25:29.125Z,40.80
2018-10-21T09:27:58.251Z,40.80
2018-10-21T09:30:27.704Z,40.20
2018-10-21T09:32:56.913Z,42.00
2018-10-21T09:35:26.801Z,40.90
2018-10-21T09:37:56.091Z,41.10
2018-10-21T09:40:25.156Z,40.70
2018-10-21T09:42:54.231Z,40.30
2018-10-21T09:45:23.265Z,40.70
2018-10-21T09:47:52.366Z,40.10
2018-10-21T09:50:21.748Z,40.20
2018-10-21T09:52:53.198Z,41.20
2018-10-21T09:55:23.124Z,41.30
2018-10-21T09:57:52.291Z,41.20
2018-10-21T10:00:26.735Z,41.80
2018-10-21T10:03:02.317Z,41.00
2018-10-21T10:05:31.554Z,40.30
2018-10-21T10:08:02.911Z,40.30
2018-10-21T10:10:31.963Z,40.20
2018-10-21T10:13:01.522Z,40.60
2018-10-21T10:15:30.465Z,40.60
2018-10-21T10:17:59.692Z,41.10
2018-10-21T10:20:28.688Z,41.00
2018-10-21T10:22:58.149Z,40.10
2018-10-21T10:25:27.271Z,39.50
2018-10-21T10:27:56.400Z,39.50
2018-10-21T10:30:25.515Z,39.30
2018-10-21T10:32:54.567Z,38.90
2018-10-21T10:35:24.039Z,39.20
2018-10-21T10:37:53.012Z,40.00
2018-10-21T10:40:21.998Z,39.80
2018-10-21T10:42:50.985Z,38.50
2018-10-21T10:45:20.756Z,37.30
2018-10-21T10:47:49.843Z,38.00
2018-10-21T10:50:18.976Z,38.50
2018-10-21T10:52:49.838Z,39.20
2018-10-21T10:55:18.929Z,40.20
2018-10-21T10:57:48.684Z,39.70
2018-10-21T11:00:18.179Z,41.30
2018-10-21T11:02:47.225Z,41.40
2018-10-21T11:05:16.624Z,41.60
2018-10-21T11:07:45.608Z,40.70
2018-10-21T11:10:16.324Z,41.90
2018-10-21T11:12:45.398Z,42.70
2018-10-21T11:15:14.479Z,42.50
2018-10-21T11:17:43.596Z,44.50
2018-10-21T11:20:12.611Z,46.70
2018-10-21T11:22:41.624Z,48.20
2018-10-21T11:25:10.680Z,46.40
2018-10-21T11:27:39.694Z,47.30
2018-10-21T11:30:08.715Z,46.00
2018-10-21T11:32:37.761Z,44.30
2018-10-21T11:35:06.856Z,45.70
2018-10-21T11:37:36.664Z,45.10
2018-10-21T11:40:06.174Z,46.40
2018-10-21T11:42:35.565Z,46.50
2018-10-21T11:45:05.518Z,45.80
2018-10-21T11:47:34.507Z,46.80
2018-10-21T11:50:04.212Z,46.40
2018-10-21T11:52:33.391Z,46.70
2018-10-21T11:55:02.448Z,48.00
2018-10-21T11:57:31.454Z,46.90
2018-10-21T12:00:01.254Z,47.00
2018-10-21T12:02:30.345Z,49.00
2018-10-21T12:04:59.436Z,51.00
2018-10-21T12:07:28.490Z,50.40
2018-10-21T12:09:57.577Z,51.30
2018-10-21T12:12:28.230Z,53.00
2018-10-21T12:14:57.358Z,54.00
2018-10-21T12:17:26.892Z,55.80
2018-10-21T12:19:56.017Z,55.20
2018-10-21T12:22:25.120Z,54.80
2018-10-21T12:24:54.141Z,53.20
2018-10-21T12:27:23.261Z,53.10
2018-10-21T12:29:52.346Z,53.90
2018-10-21T12:32:21.372Z,55.10
2018-10-21T12:34:50.518Z,55.60
2018-10-21T12:37:19.562Z,57.00
2018-10-21T12:39:50.804Z,58.40
2018-10-21T12:42:19.810Z,58.20
2018-10-21T12:44:49.103Z,57.90
2018-10-21T12:47:18.233Z,58.50
2018-10-21T12:49:47.142Z,58.50
2018-10-21T12:52:16.208Z,60.00
2018-10-21T12:54:45.119Z,59.90
2018-10-21T12:57:15.375Z,60.80
2018-10-21T12:59:44.611Z,61.10
2018-10-21T13:02:14.767Z,62.60
2018-10-21T13:04:43.921Z,62.20
2018-10-21T13:07:13.300Z,60.50
2018-10-21T13:09:42.258Z,60.20
2018-10-21T13:12:11.289Z,60.30
2018-10-21T13:14:41.301Z,61.10
2018-10-21T13:17:10.434Z,62.60
2018-10-21T13:19:40.524Z,62.70
2018-10-21T13:22:09.588Z,63.80
2018-10-21T13:24:38.674Z,64.80
2018-10-21T13:27:07.733Z,65.60
2018-10-21T13:29:36.808Z,67.70
2018-10-21T13:32:05.916Z,68.60
2018-10-21T13:34:35.172Z,68.20
2018-10-21T13:37:05.038Z,68.70
2018-10-21T13:39:34.060Z,69.20
2018-10-21T13:42:03.149Z,69.30
2018-10-21T13:44:32.177Z,70.00
2018-10-21T13:47:01.218Z,71.00
2018-10-21T13:49:31.092Z,71.80
2018-10-21T13:52:00.911Z,72.50
2018-10-21T13:54:29.906Z,72.20
2018-10-21T13:56:59.015Z,72.30
2018-10-21T13:59:28.823Z,72.40
2018-10-21T14:01:57.881Z,72.40
2018-10-21T14:04:26.956Z,70.90
2018-10-21T14:06:56.064Z,71.20
2018-10-21T14:09:25.216Z,72.00
2018-10-21T14:11:57.304Z,71.40
2018-10-21T14:14:26.443Z,71.10
2018-10-21T14:16:55.727Z,71.70
2018-10-21T14:19:24.704Z,73.20
2018-10-21T14:21:53.838Z,73.10
2018-10-21T14:24:23.378Z,74.60
2018-10-21T14:26:52.645Z,74.30
2018-10-21T14:29:21.738Z,75.00
2018-10-21T14:31:51.277Z,75.90
2018-10-21T14:34:20.500Z,77.10
2018-10-21T14:36:49.882Z,77.30
2018-10-21T14:39:18.956Z,78.80
2018-10-21T14:41:53.099Z,79.10
2018-10-21T14:44:22.282Z,79.10
2018-10-21T14:46:51.636Z,79.70
2018-10-21T14:49:20.747Z,80.10
2018-10-21T14:51:49.881Z,80.50
2018-10-21T14:54:19.292Z,81.40
2018-10-21T14:56:49.605Z,82.70
2018-10-21T14:59:18.714Z,82.20
2018-10-21T15:01:47.839Z,82.50
2018-10-21T15:04:17.394Z,83.40
2018-10-21T15:06:46.563Z,85.10
2018-10-21T15:09:16.399Z,86.30
2018-10-21T15:11:45.654Z,86.90
2018-10-21T15:14:15.613Z,88.10
2018-10-21T15:16:44.603Z,88.20
2018-10-21T15:19:13.703Z,88.50
2018-10-21T15:21:42.759Z,89.20
2018-10-21T15:24:11.971Z,89.50
2018-10-21T15:26:40.985Z,90.20
2018-10-21T15:29:10.091Z,90.70
2018-10-21T15:31:39.762Z,91.10
2018-10-21T15:34:08.940Z,91.40
2018-10-21T15:36:37.940Z,91.80
2018-10-21T15:39:08.819Z,92.60
2018-10-21T15:41:38.031Z,93.20
2018-10-21T15:44:07.742Z,93.80
2018-10-21T15:46:36.993Z,94.20
2018-10-21T15:49:07.031Z,94.80
2018-10-21T15:51:36.110Z,95.30
2018-10-21T15:54:05.523Z,95.90
2018-10-21T15:56:34.685Z,96.60
2018-10-21T15:59:03.809Z,97.10
2018-10-21T16:01:32.879Z,97.70
2018-10-21T16:04:02.275Z,98.20
2018-10-21T16:06:31.486Z,98.90
2018-10-21T16:09:01.491Z,99.60
2018-10-21T16:11:30.604Z,99.90
2018-10-21T16:13:59.791Z,99.90
2018-10-21T16:16:28.999Z,99.90
2018-10-21T16:18:58.051Z,99.90
2018-10-21T16:21:29.336Z,99.90
2018-10-21T16:23:58.476Z,99.90
2018-10-21T16:26:27.737Z,99.90
2018-10-21T16:28:57.190Z,99.90
2018-10-21T16:31:26.323Z,99.90
2018-10-21T16:33:55.323Z,99.90
2018-10-21T16:36:24.695Z,99.90
2018-10-21T16:38:53.763Z,99.90
2018-10-21T16:41:26.782Z,99.90
2018-10-21T16:43:57.565Z,99.90
2018-10-21T16:46:26.682Z,99.90
2018-10-21T16:48:56.303Z,99.90
2018-10-21T16:51:25.439Z,99.90
2018-10-21T16:53:54.774Z,99.90
2018-10-21T16:56:23.846Z,99.90
2018-10-21T16:58:52.994Z,99.90
2018-10-21T17:01:23.782Z,99.90
2018-10-21T17:03:52.968Z,99.90
2018-10-21T17:06:22.180Z,99.90
2018-10-21T17:08:51.638Z,99.90
2018-10-21T17:11:20.781Z,99.90
2018-10-21T17:13:56.165Z,99.90
2018-10-21T17:16:26.129Z,99.90
2018-10-21T17:18:55.096Z,99.90
2018-10-21T17:21:24.054Z,99.90
2018-10-21T17:23:53.072Z,99.90
2018-10-21T17:26:22.383Z,99.90
2018-10-21T17:28:51.401Z,99.90
2018-10-21T17:31:20.399Z,99.90
2018-10-21T17:33:49.386Z,99.90
2018-10-21T17:36:18.414Z,99.90
2018-10-21T17:38:48.090Z,99.90
2018-10-21T17:41:18.004Z,99.90
2018-10-21T17:43:47.007Z,99.90
2018-10-21T17:46:16.099Z,99.90
2018-10-21T17:48:45.084Z,99.90
2018-10-21T17:51:14.921Z,99.90
2018-10-21T17:53:44.205Z,99.90
2018-10-21T17:56:14.665Z,99.90
2018-10-21T17:58:43.896Z,99.90
2018-10-21T18:01:13.084Z,99.90
2018-10-21T18:03:42.223Z,99.90
2018-10-21T18:06:11.322Z,99.90
2018-10-21T18:08:40.368Z,99.90
2018-10-21T18:11:09.669Z,99.90
2018-10-21T18:13:38.950Z,99.90
2018-10-21T18:16:08.056Z,99.90
2018-10-21T18:18:37.416Z,99.90
2018-10-21T18:21:06.671Z,99.90
2018-10-21T18:23:38.078Z,99.90
2018-10-21T18:26:07.291Z,99.90
2018-10-21T18:28:36.248Z,99.90
2018-10-21T18:31:05.452Z,99.90
2018-10-21T18:33:34.506Z,99.90
2018-10-21T18:36:03.735Z,99.90
2018-10-21T18:38:32.878Z,99.90
2018-10-21T18:41:02.611Z,99.90
2018-10-21T18:43:31.529Z,99.90
2018-10-21T18:46:00.656Z,99.90
2018-10-21T18:48:29.879Z,99.90
2018-10-21T18:50:59.566Z,99.90
2018-10-21T18:53:31.344Z,99.90
2018-10-21T18:56:00.451Z,99.90
2018-10-21T18:58:29.634Z,99.90
2018-10-21T19:00:58.827Z,99.90
2018-10-21T19:03:27.906Z,99.90
2018-10-21T19:05:57.108Z,99.90
2018-10-21T19:08:26.199Z,99.90
2018-10-21T19:10:56.878Z,99.90
2018-10-21T19:13:25.983Z,99.90
2018-10-21T19:15:55.781Z,99.90
2018-10-21T19:18:25.527Z,99.90
2018-10-21T19:20:56.138Z,99.90
2018-10-21T19:23:25.200Z,99.90
2018-10-21T19:25:54.468Z,99.90
2018-10-21T19:28:23.531Z,99.90
2018-10-21T19:30:52.606Z,99.90
2018-10-21T19:33:22.342Z,99.90
2018-10-21T19:35:51.436Z,99.90
2018-10-21T19:38:21.915Z,99.90
2018-10-21T19:40:51.041Z,99.90
2018-10-21T19:43:20.656Z,99.90
2018-10-21T19:45:50.025Z,99.90
2018-10-21T19:48:19.431Z,99.90
2018-10-21T19:50:48.518Z,99.90
2018-10-21T19:53:17.880Z,99.90
2018-10-21T19:55:47.351Z,99.90
2018-10-21T19:58:16.585Z,99.90
2018-10-21T20:00:46.531Z,99.90
2018-10-21T20:03:17.929Z,99.90
2018-10-21T20:05:50.524Z,99.90
2018-10-21T20:08:21.876Z,99.90
2018-10-21T20:10:53.083Z,99.90
2018-10-21T20:13:22.640Z,99.90
2018-10-21T20:15:51.828Z,99.90
2018-10-21T20:18:21.102Z,99.90
2018-10-21T20:20:50.162Z,99.90
2018-10-21T20:23:19.207Z,99.90
2018-10-21T20:25:48.307Z,99.90
2018-10-21T20:28:19.072Z,99.90
2018-10-21T20:30:48.171Z,99.90
2018-10-21T20:33:17.924Z,99.90
2018-10-21T20:35:47.156Z,99.90
2018-10-21T20:38:16.230Z,99.90
2018-10-21T20:40:45.447Z,99.90
2018-10-21T20:43:14.572Z,99.90
2018-10-21T20:45:44.985Z,99.90
2018-10-21T20:48:14.156Z,99.90
2018-10-21T20:50:43.146Z,99.90
2018-10-21T20:53:12.264Z,99.90
2018-10-21T20:55:41.277Z,99.90
2018-10-21T20:58:10.381Z,99.90
2018-10-21T21:00:39.389Z,99.90
2018-10-21T21:03:08.491Z,99.90
2018-10-21T21:05:37.600Z,99.90
2018-10-21T21:08:08.950Z,99.90
2018-10-21T21:10:38.058Z,99.90
2018-10-21T21:13:07.150Z,99.90
2018-10-21T21:15:36.224Z,99.90
2018-10-21T21:18:05.438Z,99.90
2018-10-21T21:20:34.454Z,99.90
2018-10-21T21:23:03.409Z,99.90
2018-10-21T21:25:32.521Z,99.90
2018-10-21T21:28:01.584Z,99.90
2018-10-21T21:30:31.901Z,99.90
2018-10-21T21:33:01.147Z,99.90
2018-10-21T21:35:30.393Z,99.90
2018-10-21T21:37:59.499Z,99.90
2018-10-21T21:40:28.518Z,99.90
2018-10-21T21:42:57.600Z,99.90
2018-10-21T21:45:26.737Z,99.90
2018-10-21T21:47:56.564Z,99.90
2018-10-21T21:50:25.624Z,99.90
2018-10-21T21:52:54.702Z,99.90
2018-10-21T21:55:23.782Z,99.90
2018-10-21T21:57:52.924Z,99.90
2018-10-21T22:00:22.152Z,99.90
2018-10-21T22:02:51.279Z,99.90
2018-10-21T22:05:20.412Z,99.90
2018-10-21T22:07:49.430Z,99.90
2018-10-21T22:10:19.587Z,99.90
2018-10-21T22:12:48.624Z,99.90
2018-10-21T22:15:17.826Z,99.90
2018-10-21T22:17:47.000Z,99.90
2018-10-21T22:20:20.243Z,99.90
2018-10-21T22:22:49.333Z,99.90
2018-10-21T22:25:18.320Z,99.90
2018-10-21T22:27:47.684Z,99.90
2018-10-21T22:30:17.360Z,99.90
2018-10-21T22:32:46.550Z,99.90
2018-10-21T22:35:15.606Z,99.90
2018-10-21T22:37:45.237Z,99.90
2018-10-21T22:40:14.490Z,99.90
2018-10-21T22:42:43.500Z,99.90
2018-10-21T22:45:12.653Z,99.90
2018-10-21T22:47:41.660Z,99.90
2018-10-21T22:50:11.793Z,99.90
2018-10-21T22:52:41.343Z,99.90
2018-10-21T22:55:10.474Z,99.90
2018-10-21T22:57:39.504Z,99.90
2018-10-21T23:00:10.673Z,99.90
2018-10-21T23:02:39.628Z,99.90
2018-10-21T23:05:09.951Z,99.90
2018-10-21T23:07:41.058Z,99.90
2018-10-21T23:10:11.129Z,99.90
2018-10-21T23:12:40.228Z,99.90
2018-10-21T23:15:09.292Z,99.90
2018-10-21T23:17:38.941Z,99.90
2018-10-21T23:20:08.481Z,99.90
2018-10-21T23:22:37.560Z,99.90
2018-10-21T23:25:07.001Z,99.90
2018-10-21T23:27:36.180Z,99.90
2018-10-21T23:30:06.234Z,99.90
2018-10-21T23:32:38.786Z,99.90
2018-10-21T23:35:07.918Z,99.90
2018-10-21T23:37:36.982Z,99.90
2018-10-21T23:40:07.064Z,99.90
2018-10-21T23:42:39.122Z,99.90
2018-10-21T23:45:08.139Z,99.90
2018-10-21T23:47:38.464Z,99.90
2018-10-21T23:50:07.914Z,99.90
2018-10-21T23:52:37.074Z,99.90
2018-10-21T23:55:06.419Z,99.90
2018-10-21T23:57:35.595Z,99.90
